Burnips, Michigan
Current Conditions -  °F | °C
As of 1:53 AM on Monday 22 Dec 2014 (Local Time) from KBIV Reporting Station
Clear Clear  
Wind Chill: 24°   Ceiling: Unl
Heat Index: 31°   Visibility: 7mi
Dew Point: 24°   Wind: 7mph
Humidity: 76%   Direction: 130°SE
Pressure: 30.06"   Gusts: NA
Location:  42.73°N, 85.84°W
Report Text: KBIV 220653Z AUTO 13006KT 7SM CLR M01/M04 A3006 RMK AO2 SLP188 T10061044
Loading
Personal Weather Stations






























Interactive Weather Map New forecast layout! Learn more

10-Day Weather Forecast

Advertisements
Track Severe Weather on mobile